sensor_id;sensor_type;location;lat;lon;timestamp;pressure;altitude;pressure_sealevel;temperature;humidity
32761;BME280;19126;47.472;7.850;2023-02-28T00:01:19;96923.69;;;-1.83;89.33
32761;BME280;19126;47.472;7.850;2023-02-28T00:03:48;96913.56;;;-1.86;88.90
32761;BME280;19126;47.472;7.850;2023-02-28T00:06:18;96917.06;;;-1.87;89.44
32761;BME280;19126;47.472;7.850;2023-02-28T00:08:49;96927.19;;;-1.84;89.41
32761;BME280;19126;47.472;7.850;2023-02-28T00:11:17;96922.22;;;-1.87;89.21
32761;BME280;19126;47.472;7.850;2023-02-28T00:13:45;96921.00;;;-1.82;89.51
32761;BME280;19126;47.472;7.850;2023-02-28T00:16:15;96927.19;;;-1.84;88.37
32761;BME280;19126;47.472;7.850;2023-02-28T00:18:46;96925.34;;;-1.82;89.07
32761;BME280;19126;47.472;7.850;2023-02-28T00:21:16;96924.31;;;-1.80;89.65
32761;BME280;19126;47.472;7.850;2023-02-28T00:23:50;96919.19;;;-1.80;89.75
32761;BME280;19126;47.472;7.850;2023-02-28T00:26:17;96917.34;;;-1.78;89.69
32761;BME280;19126;47.472;7.850;2023-02-28T00:28:44;96921.69;;;-1.78;89.34
32761;BME280;19126;47.472;7.850;2023-02-28T00:31:11;96913.22;;;-1.80;89.73
32761;BME280;19126;47.472;7.850;2023-02-28T00:33:39;96920.84;;;-1.79;89.61
32761;BME280;19126;47.472;7.850;2023-02-28T00:36:11;96913.09;;;-1.79;90.18
32761;BME280;19126;47.472;7.850;2023-02-28T00:38:46;96912.38;;;-1.81;89.86
32761;BME280;19126;47.472;7.850;2023-02-28T00:41:15;96908.31;;;-1.85;89.43
32761;BME280;19126;47.472;7.850;2023-02-28T00:43:42;96910.81;;;-1.83;89.97
32761;BME280;19126;47.472;7.850;2023-02-28T00:46:12;96906.41;;;-1.81;90.57
32761;BME280;19126;47.472;7.850;2023-02-28T00:48:39;96914.88;;;-1.79;89.57
32761;BME280;19126;47.472;7.850;2023-02-28T00:51:06;96907.41;;;-1.84;89.69
32761;BME280;19126;47.472;7.850;2023-02-28T00:53:33;96905.28;;;-1.92;90.21
32761;BME280;19126;47.472;7.850;2023-02-28T00:56:02;96916.88;;;-1.84;90.02
32761;BME280;19126;47.472;7.850;2023-02-28T00:58:29;96918.72;;;-1.86;90.96
32761;BME280;19126;47.472;7.850;2023-02-28T01:00:57;96915.47;;;-1.90;90.25
32761;BME280;19126;47.472;7.850;2023-02-28T01:03:25;96913.75;;;-1.89;91.29
32761;BME280;19126;47.472;7.850;2023-02-28T01:05:52;96917.88;;;-1.87;90.63
32761;BME280;19126;47.472;7.850;2023-02-28T01:08:20;96915.97;;;-1.83;90.93
32761;BME280;19126;47.472;7.850;2023-02-28T01:10:50;96921.13;;;-1.83;90.74
32761;BME280;19126;47.472;7.850;2023-02-28T01:13:19;96915.41;;;-1.88;90.57
32761;BME280;19126;47.472;7.850;2023-02-28T01:15:49;96908.59;;;-1.89;90.47
32761;BME280;19126;47.472;7.850;2023-02-28T01:18:17;96913.66;;;-1.88;90.42
32761;BME280;19126;47.472;7.850;2023-02-28T01:20:44;96906.66;;;-1.86;90.80
32761;BME280;19126;47.472;7.850;2023-02-28T01:23:14;96910.16;;;-1.87;90.33
32761;BME280;19126;47.472;7.850;2023-02-28T01:25:41;96905.13;;;-1.88;90.93
32761;BME280;19126;47.472;7.850;2023-02-28T01:28:08;96905.00;;;-1.87;90.83
32761;BME280;19126;47.472;7.850;2023-02-28T01:30:37;96902.91;;;-1.95;91.68
32761;BME280;19126;47.472;7.850;2023-02-28T01:33:04;96910.44;;;-1.92;91.94
32761;BME280;19126;47.472;7.850;2023-02-28T01:35:32;96907.56;;;-1.87;92.25
32761;BME280;19126;47.472;7.850;2023-02-28T01:37:59;96908.44;;;-1.86;91.61
32761;BME280;19126;47.472;7.850;2023-02-28T01:40:26;96905.75;;;-1.85;91.46
32761;BME280;19126;47.472;7.850;2023-02-28T01:42:53;96904.38;;;-1.90;91.56
32761;BME280;19126;47.472;7.850;2023-02-28T01:45:22;96912.84;;;-1.88;91.56
32761;BME280;19126;47.472;7.850;2023-02-28T01:47:55;96904.00;;;-1.84;92.25
32761;BME280;19126;47.472;7.850;2023-02-28T01:50:26;96889.09;;;-1.94;92.08
32761;BME280;19126;47.472;7.850;2023-02-28T01:53:10;96892.31;;;-1.90;92.43
32761;BME280;19126;47.472;7.850;2023-02-28T01:55:40;96891.56;;;-1.92;92.27
32761;BME280;19126;47.472;7.850;2023-02-28T01:58:09;96889.56;;;-1.87;93.35
32761;BME280;19126;47.472;7.850;2023-02-28T02:00:36;96884.59;;;-1.90;93.60
32761;BME280;19126;47.472;7.850;2023-02-28T02:03:07;96878.44;;;-1.87;93.56
32761;BME280;19126;47.472;7.850;2023-02-28T02:05:42;96883.09;;;-1.94;93.15
32761;BME280;19126;47.472;7.850;2023-02-28T02:08:23;96897.38;;;-1.88;93.11
32761;BME280;19126;47.472;7.850;2023-02-28T02:11:07;96869.50;;;-1.96;93.77
32761;BME280;19126;47.472;7.850;2023-02-28T02:13:50;96854.34;;;-2.01;93.97
32761;BME280;19126;47.472;7.850;2023-02-28T02:26:58;96853.03;;;-2.08;95.70
32761;BME280;19126;47.472;7.850;2023-02-28T02:37:31;96867.22;;;-2.01;95.50
32761;BME280;19126;47.472;7.850;2023-02-28T02:40:42;96844.22;;;-2.04;95.81
32761;BME280;19126;47.472;7.850;2023-02-28T02:44:30;96847.72;;;-2.05;95.65
32761;BME280;19126;47.472;7.850;2023-02-28T02:46:52;96842.75;;;-2.08;97.01
32761;BME280;19126;47.472;7.850;2023-02-28T02:49:50;96862.63;;;-1.96;96.85
32761;BME280;19126;47.472;7.850;2023-02-28T02:52:46;96868.59;;;-1.95;96.22
32761;BME280;19126;47.472;7.850;2023-02-28T02:56:13;96868.31;;;-1.90;96.73
32761;BME280;19126;47.472;7.850;2023-02-28T02:59:03;96870.16;;;-1.93;96.69
32761;BME280;19126;47.472;7.850;2023-02-28T03:05:14;96849.09;;;-1.99;95.73
32761;BME280;19126;47.472;7.850;2023-02-28T03:11:29;96847.59;;;-2.03;97.25
32761;BME280;19126;47.472;7.850;2023-02-28T03:14:42;96865.19;;;-1.96;96.97
32761;BME280;19126;47.472;7.850;2023-02-28T03:17:47;96852.69;;;-2.02;96.02
32761;BME280;19126;47.472;7.850;2023-02-28T03:20:34;96867.47;;;-2.06;95.91
32761;BME280;19126;47.472;7.850;2023-02-28T03:23:41;96845.88;;;-2.03;95.73
32761;BME280;19126;47.472;7.850;2023-02-28T03:26:28;96849.38;;;-2.04;96.02
32761;BME280;19126;47.472;7.850;2023-02-28T03:29:20;96851.19;;;-2.06;96.75
32761;BME280;19126;47.472;7.850;2023-02-28T03:32:23;96847.53;;;-2.02;96.22
32761;BME280;19126;47.472;7.850;2023-02-28T03:38:47;96847.53;;;-2.02;97.55
32761;BME280;19126;47.472;7.850;2023-02-28T03:42:11;96843.38;;;-2.04;96.98
32761;BME280;19126;47.472;7.850;2023-02-28T03:45:07;96847.59;;;-2.03;97.16
32761;BME280;19126;47.472;7.850;2023-02-28T03:48:03;96848.34;;;-2.01;96.95
32761;BME280;19126;47.472;7.850;2023-02-28T03:51:15;96850.66;;;-2.11;96.52
32761;BME280;19126;47.472;7.850;2023-02-28T03:54:40;96857.28;;;-2.07;97.42
32761;BME280;19126;47.472;7.850;2023-02-28T03:57:55;96849.41;;;-2.20;96.65
32761;BME280;19126;47.472;7.850;2023-02-28T04:00:50;96855.22;;;-2.16;97.72
32761;BME280;19126;47.472;7.850;2023-02-28T04:03:55;96865.91;;;-2.08;97.60
32761;BME280;19126;47.472;7.850;2023-02-28T04:09:40;96868.28;;;-2.19;97.07
32761;BME280;19126;47.472;7.850;2023-02-28T04:12:29;96879.31;;;-2.17;97.51
32761;BME280;19126;47.472;7.850;2023-02-28T04:15:20;96863.47;;;-2.26;97.70
32761;BME280;19126;47.472;7.850;2023-02-28T04:18:23;96884.47;;;-2.17;96.69
32761;BME280;19126;47.472;7.850;2023-02-28T04:21:27;96862.81;;;-2.29;97.68
32761;BME280;19126;47.472;7.850;2023-02-28T04:24:12;96884.81;;;-2.24;97.42
32761;BME280;19126;47.472;7.850;2023-02-28T04:26:48;96871.84;;;-2.22;96.66
32761;BME280;19126;47.472;7.850;2023-02-28T04:29:41;96882.81;;;-2.18;96.91
32761;BME280;19126;47.472;7.850;2023-02-28T04:35:58;96875.16;;;-2.20;97.95
32761;BME280;19126;47.472;7.850;2023-02-28T04:38:36;96873.59;;;-2.23;98.12
32761;BME280;19126;47.472;7.850;2023-02-28T04:44:27;96881.72;;;-2.14;98.08
32761;BME280;19126;47.472;7.850;2023-02-28T04:47:02;96890.81;;;-2.09;96.93
32761;BME280;19126;47.472;7.850;2023-02-28T04:49:45;96895.69;;;-2.04;96.99
32761;BME280;19126;47.472;7.850;2023-02-28T04:52:36;96879.03;;;-2.13;97.24
32761;BME280;19126;47.472;7.850;2023-02-28T04:55:51;96899.94;;;-2.03;96.58
32761;BME280;19126;47.472;7.850;2023-02-28T04:58:33;96898.16;;;-2.02;96.69
32761;BME280;19126;47.472;7.850;2023-02-28T05:01:14;96891.53;;;-2.07;96.64
32761;BME280;19126;47.472;7.850;2023-02-28T05:03:46;96898.28;;;-2.04;96.72
32761;BME280;19126;47.472;7.850;2023-02-28T05:06:23;96896.78;;;-2.08;96.84
32761;BME280;19126;47.472;7.850;2023-02-28T05:09:19;96883.53;;;-2.16;97.17
32761;BME280;19126;47.472;7.850;2023-02-28T05:11:57;96884.28;;;-2.14;96.54
32761;BME280;19126;47.472;7.850;2023-02-28T05:14:43;96895.13;;;-2.09;97.07
32761;BME280;19126;47.472;7.850;2023-02-28T05:17:12;96897.03;;;-2.13;96.42
32761;BME280;19126;47.472;7.850;2023-02-28T05:19:45;96885.66;;;-2.09;96.50
32761;BME280;19126;47.472;7.850;2023-02-28T05:22:22;96906.81;;;-2.03;96.75
32761;BME280;19126;47.472;7.850;2023-02-28T05:24:58;96894.75;;;-2.17;96.01
32761;BME280;19126;47.472;7.850;2023-02-28T05:27:32;96895.38;;;-2.14;97.21
32761;BME280;19126;47.472;7.850;2023-02-28T05:30:14;96902.88;;;-2.09;97.64
32761;BME280;19126;47.472;7.850;2023-02-28T05:32:53;96897.72;;;-2.09;97.43
32761;BME280;19126;47.472;7.850;2023-02-28T05:35:22;96889.31;;;-2.13;97.26
32761;BME280;19126;47.472;7.850;2023-02-28T05:37:57;96910.97;;;-2.01;96.36
32761;BME280;19126;47.472;7.850;2023-02-28T05:40:30;96902.69;;;-2.06;96.67
32761;BME280;19126;47.472;7.850;2023-02-28T05:42:57;96900.00;;;-2.04;96.38
32761;BME280;19126;47.472;7.850;2023-02-28T05:45:24;96892.47;;;-2.08;96.48
32761;BME280;19126;47.472;7.850;2023-02-28T05:47:57;96897.78;;;-2.11;96.93
32761;BME280;19126;47.472;7.850;2023-02-28T05:50:29;96908.56;;;-2.04;96.61
32761;BME280;19126;47.472;7.850;2023-02-28T05:53:02;96897.03;;;-2.13;96.28
32761;BME280;19126;47.472;7.850;2023-02-28T05:55:40;96906.19;;;-2.07;96.29
32761;BME280;19126;47.472;7.850;2023-02-28T05:58:10;96903.13;;;-2.14;96.68
32761;BME280;19126;47.472;7.850;2023-02-28T06:00:43;96902.75;;;-2.08;96.93
32761;BME280;19126;47.472;7.850;2023-02-28T06:03:11;96906.91;;;-2.05;96.77
32761;BME280;19126;47.472;7.850;2023-02-28T06:05:38;96906.53;;;-2.13;96.74
32761;BME280;19126;47.472;7.850;2023-02-28T06:08:10;96913.22;;;-2.11;97.52
32761;BME280;19126;47.472;7.850;2023-02-28T06:10:45;96910.31;;;-2.04;96.75
32761;BME280;19126;47.472;7.850;2023-02-28T06:13:14;96912.41;;;-2.11;97.13
32761;BME280;19126;47.472;7.850;2023-02-28T06:15:41;96913.22;;;-2.11;96.94
32761;BME280;19126;47.472;7.850;2023-02-28T06:18:11;96905.69;;;-2.14;96.52
32761;BME280;19126;47.472;7.850;2023-02-28T06:20:52;96909.91;;;-2.13;96.63
32761;BME280;19126;47.472;7.850;2023-02-28T06:23:36;96936.03;;;-2.04;96.64
32761;BME280;19126;47.472;7.850;2023-02-28T06:26:05;96936.03;;;-2.04;96.46
32761;BME280;19126;47.472;7.850;2023-02-28T06:28:37;96921.78;;;-2.10;95.75
32761;BME280;19126;47.472;7.850;2023-02-28T06:31:17;96915.50;;;-2.21;96.09
32761;BME280;19126;47.472;7.850;2023-02-28T06:33:48;96921.53;;;-2.06;96.21
32761;BME280;19126;47.472;7.850;2023-02-28T06:36:16;96932.00;;;-2.09;95.90
32761;BME280;19126;47.472;7.850;2023-02-28T06:38:46;96939.53;;;-2.06;95.46
32761;BME280;19126;47.472;7.850;2023-02-28T06:41:25;96931.19;;;-2.09;95.96
32761;BME280;19126;47.472;7.850;2023-02-28T06:43:55;96927.75;;;-2.10;95.64
32761;BME280;19126;47.472;7.850;2023-02-28T06:46:29;96932.47;;;-2.02;95.81
32761;BME280;19126;47.472;7.850;2023-02-28T06:48:56;96938.63;;;-2.04;94.92
32761;BME280;19126;47.472;7.850;2023-02-28T06:51:31;96939.19;;;-1.99;95.29
32761;BME280;19126;47.472;7.850;2023-02-28T06:54:07;96922.44;;;-2.07;95.66
32761;BME280;19126;47.472;7.850;2023-02-28T06:56:39;96924.94;;;-2.05;96.04
32761;BME280;19126;47.472;7.850;2023-02-28T06:59:07;96941.75;;;-1.99;95.89
32761;BME280;19126;47.472;7.850;2023-02-28T07:01:37;96939.19;;;-1.99;95.72
32761;BME280;19126;47.472;7.850;2023-02-28T07:04:07;96940.84;;;-1.98;96.10
32761;BME280;19126;47.472;7.850;2023-02-28T07:06:47;96941.88;;;-2.01;95.80
32761;BME280;19126;47.472;7.850;2023-02-28T07:09:15;96939.47;;;-2.04;95.14
32761;BME280;19126;47.472;7.850;2023-02-28T07:11:46;96941.88;;;-2.01;95.05
32761;BME280;19126;47.472;7.850;2023-02-28T07:14:13;96957.69;;;-1.93;94.89
32761;BME280;19126;47.472;7.850;2023-02-28T07:16:43;96959.91;;;-1.86;95.77
32761;BME280;19126;47.472;7.850;2023-02-28T07:19:12;96955.69;;;-1.87;95.36
32761;BME280;19126;47.472;7.850;2023-02-28T07:21:44;96943.00;;;-1.90;94.79
32761;BME280;19126;47.472;7.850;2023-02-28T07:24:14;96967.47;;;-1.83;94.49
32761;BME280;19126;47.472;7.850;2023-02-28T07:26:48;96947.13;;;-1.88;94.66
32761;BME280;19126;47.472;7.850;2023-02-28T07:29:23;96949.97;;;-1.93;95.03
32761;BME280;19126;47.472;7.850;2023-02-28T07:31:51;96963.81;;;-1.79;95.40
32761;BME280;19126;47.472;7.850;2023-02-28T07:34:30;96970.69;;;-1.80;94.86
32761;BME280;19126;47.472;7.850;2023-02-28T07:37:02;96963.88;;;-1.81;94.27
32761;BME280;19126;47.472;7.850;2023-02-28T07:39:31;96963.53;;;-1.74;94.03
32761;BME280;19126;47.472;7.850;2023-02-28T07:42:05;96971.91;;;-1.71;94.32
32761;BME280;19126;47.472;7.850;2023-02-28T07:44:51;96971.00;;;-1.70;94.41
32761;BME280;19126;47.472;7.850;2023-02-28T07:47:28;96978.72;;;-1.70;94.98
32761;BME280;19126;47.472;7.850;2023-02-28T07:49:56;96976.16;;;-1.70;94.44
32761;BME280;19126;47.472;7.850;2023-02-28T07:52:26;96984.25;;;-1.62;94.23
32761;BME280;19126;47.472;7.850;2023-02-28T07:55:00;96974.66;;;-1.74;92.89
32761;BME280;19126;47.472;7.850;2023-02-28T07:57:37;96987.09;;;-1.66;92.66
32761;BME280;19126;47.472;7.850;2023-02-28T08:00:07;96987.75;;;-1.63;92.79
32761;BME280;19126;47.472;7.850;2023-02-28T08:02:36;96992.91;;;-1.63;92.71
32761;BME280;19126;47.472;7.850;2023-02-28T08:05:09;96997.88;;;-1.59;92.74
32761;BME280;19126;47.472;7.850;2023-02-28T08:07:48;96996.84;;;-1.57;92.67
32761;BME280;19126;47.472;7.850;2023-02-28T08:10:17;96992.22;;;-1.66;92.02
32761;BME280;19126;47.472;7.850;2023-02-28T08:12:45;96984.06;;;-1.58;93.50
32761;BME280;19126;47.472;7.850;2023-02-28T08:15:12;96997.34;;;-1.50;93.80
32761;BME280;19126;47.472;7.850;2023-02-28T08:17:42;97004.16;;;-1.49;94.06
32761;BME280;19126;47.472;7.850;2023-02-28T08:20:10;97000.66;;;-1.48;92.27
32761;BME280;19126;47.472;7.850;2023-02-28T08:22:38;96991.09;;;-1.46;92.28
32761;BME280;19126;47.472;7.850;2023-02-28T08:25:06;96998.34;;;-1.38;92.63
32761;BME280;19126;47.472;7.850;2023-02-28T08:27:39;96995.78;;;-1.38;91.10
32761;BME280;19126;47.472;7.850;2023-02-28T08:30:12;97002.13;;;-1.44;90.85
32761;BME280;19126;47.472;7.850;2023-02-28T08:32:40;97004.53;;;-1.41;91.35
32761;BME280;19126;47.472;7.850;2023-02-28T08:35:08;96995.88;;;-1.40;92.08
32761;BME280;19126;47.472;7.850;2023-02-28T08:37:40;96998.19;;;-1.35;91.84
32761;BME280;19126;47.472;7.850;2023-02-28T08:40:22;97006.81;;;-1.36;92.30
32761;BME280;19126;47.472;7.850;2023-02-28T08:42:50;97006.38;;;-1.43;91.95
32761;BME280;19126;47.472;7.850;2023-02-28T08:45:19;97001.28;;;-1.44;91.74
32761;BME280;19126;47.472;7.850;2023-02-28T08:47:46;97004.59;;;-1.42;92.10
32761;BME280;19126;47.472;7.850;2023-02-28T08:50:18;97004.03;;;-1.48;92.04
32761;BME280;19126;47.472;7.850;2023-02-28T08:52:48;97012.44;;;-1.44;92.49
32761;BME280;19126;47.472;7.850;2023-02-28T08:55:16;97008.22;;;-1.45;92.73
32761;BME280;19126;47.472;7.850;2023-02-28T08:57:49;97009.31;;;-1.35;92.81
32761;BME280;19126;47.472;7.850;2023-02-28T09:00:23;97019.38;;;-1.30;91.77
32761;BME280;19126;47.472;7.850;2023-02-28T09:02:52;97018.91;;;-1.22;91.44
32761;BME280;19126;47.472;7.850;2023-02-28T09:05:26;97019.09;;;-1.25;91.10
32761;BME280;19126;47.472;7.850;2023-02-28T09:08:05;97008.72;;;-1.24;91.09
32761;BME280;19126;47.472;7.850;2023-02-28T09:10:32;97019.09;;;-1.11;90.31
32761;BME280;19126;47.472;7.850;2023-02-28T09:13:02;97021.25;;;-1.03;90.28
32761;BME280;19126;47.472;7.850;2023-02-28T09:15:38;97017.38;;;-0.96;89.86
32761;BME280;19126;47.472;7.850;2023-02-28T09:18:11;97027.31;;;-0.90;89.40
32761;BME280;19126;47.472;7.850;2023-02-28T09:20:42;97020.13;;;-0.84;89.01
32761;BME280;19126;47.472;7.850;2023-02-28T09:23:12;97023.81;;;-0.89;87.96
32761;BME280;19126;47.472;7.850;2023-02-28T09:25:45;97023.72;;;-0.87;88.24
32761;BME280;19126;47.472;7.850;2023-02-28T09:28:33;97027.66;;;-0.67;89.44
32761;BME280;19126;47.472;7.850;2023-02-28T09:31:02;97017.63;;;-0.71;88.12
32761;BME280;19126;47.472;7.850;2023-02-28T09:33:32;97023.50;;;-0.69;87.45
32761;BME280;19126;47.472;7.850;2023-02-28T09:36:04;97030.97;;;-0.50;87.07
32761;BME280;19126;47.472;7.850;2023-02-28T09:38:38;97032.63;;;-0.49;86.32
32761;BME280;19126;47.472;7.850;2023-02-28T09:41:14;97028.63;;;-0.40;86.70
32761;BME280;19126;47.472;7.850;2023-02-28T09:43:46;97022.25;;;-0.35;86.80
32761;BME280;19126;47.472;7.850;2023-02-28T09:46:22;97028.06;;;-0.31;85.95
32761;BME280;19126;47.472;7.850;2023-02-28T09:48:59;97032.13;;;-0.41;85.35
32761;BME280;19126;47.472;7.850;2023-02-28T09:51:40;97027.44;;;-0.35;84.60
32761;BME280;19126;47.472;7.850;2023-02-28T09:54:13;97031.09;;;-0.24;84.74
32761;BME280;19126;47.472;7.850;2023-02-28T09:56:48;97032.22;;;-0.28;84.51
32761;BME280;19126;47.472;7.850;2023-02-28T09:59:35;97034.41;;;-0.22;85.19
32761;BME280;19126;47.472;7.850;2023-02-28T10:02:13;97046.00;;;-0.15;85.47
32761;BME280;19126;47.472;7.850;2023-02-28T10:04:49;97028.00;;;-0.17;85.49
32761;BME280;19126;47.472;7.850;2023-02-28T10:07:33;97036.06;;;-0.21;84.70
32761;BME280;19126;47.472;7.850;2023-02-28T10:10:07;97033.13;;;-0.30;83.33
32761;BME280;19126;47.472;7.850;2023-02-28T10:12:45;97047.13;;;-0.19;85.05
32761;BME280;19126;47.472;7.850;2023-02-28T10:15:15;97044.53;;;-0.19;84.29
32761;BME280;19126;47.472;7.850;2023-02-28T10:17:49;97048.47;;;-0.13;84.25
32761;BME280;19126;47.472;7.850;2023-02-28T10:20:25;97051.91;;;-0.13;83.33
32761;BME280;19126;47.472;7.850;2023-02-28T10:22:58;97049.94;;;-0.09;83.43
32761;BME280;19126;47.472;7.850;2023-02-28T10:25:36;97058.13;;;-0.03;83.77
32761;BME280;19126;47.472;7.850;2023-02-28T10:28:11;97054.63;;;-0.02;84.35
32761;BME280;19126;47.472;7.850;2023-02-28T10:30:43;97052.06;;;-0.02;83.32
32761;BME280;19126;47.472;7.850;2023-02-28T10:33:19;97060.69;;;0.12;82.87
32761;BME280;19126;47.472;7.850;2023-02-28T10:35:50;97069.88;;;0.16;82.54
32761;BME280;19126;47.472;7.850;2023-02-28T10:38:24;97064.50;;;-0.08;80.92
32761;BME280;19126;47.472;7.850;2023-02-28T10:41:04;97067.16;;;0.05;82.06
32761;BME280;19126;47.472;7.850;2023-02-28T10:43:32;97061.53;;;-0.02;80.99
32761;BME280;19126;47.472;7.850;2023-02-28T10:46:04;97067.50;;;0.13;81.22
32761;BME280;19126;47.472;7.850;2023-02-28T10:49:02;97061.22;;;0.17;81.10
32761;BME280;19126;47.472;7.850;2023-02-28T10:51:38;97069.88;;;0.16;79.99
32761;BME280;19126;47.472;7.850;2023-02-28T10:54:16;97069.50;;;0.22;80.34
32761;BME280;19126;47.472;7.850;2023-02-28T10:56:46;97082.13;;;0.27;80.72
32761;BME280;19126;47.472;7.850;2023-02-28T10:59:37;97064.53;;;0.19;80.00
32761;BME280;19126;47.472;7.850;2023-02-28T11:02:32;97069.50;;;0.22;79.67
32761;BME280;19126;47.472;7.850;2023-02-28T11:05:03;97071.16;;;0.23;80.06
32761;BME280;19126;47.472;7.850;2023-02-28T11:07:55;97063.13;;;0.28;79.50
32761;BME280;19126;47.472;7.850;2023-02-28T11:10:26;97074.84;;;0.19;79.02
32761;BME280;19126;47.472;7.850;2023-02-28T11:13:00;97068.56;;;0.23;78.15
32761;BME280;19126;47.472;7.850;2023-02-28T11:15:32;97064.25;;;0.24;78.26
32761;BME280;19126;47.472;7.850;2023-02-28T11:18:21;97057.13;;;0.00;77.92
32761;BME280;19126;47.472;7.850;2023-02-28T11:20:52;97079.81;;;0.22;78.41
32761;BME280;19126;47.472;7.850;2023-02-28T11:23:28;97076.91;;;0.14;78.94
32761;BME280;19126;47.472;7.850;2023-02-28T11:26:04;97077.28;;;0.08;78.26
32761;BME280;19126;47.472;7.850;2023-02-28T11:28:36;97075.69;;;0.20;79.09
32761;BME280;19126;47.472;7.850;2023-02-28T11:31:16;97071.78;;;0.27;79.31
32761;BME280;19126;47.472;7.850;2023-02-28T11:33:47;97083.06;;;0.26;78.35
32761;BME280;19126;47.472;7.850;2023-02-28T11:36:22;97083.25;;;0.23;77.68
32761;BME280;19126;47.472;7.850;2023-02-28T11:38:51;97091.94;;;0.22;78.41
32761;BME280;19126;47.472;7.850;2023-02-28T11:41:30;97074.25;;;0.16;78.68
32761;BME280;19126;47.472;7.850;2023-02-28T11:44:18;97082.41;;;0.22;79.72
32761;BME280;19126;47.472;7.850;2023-02-28T11:46:52;97073.13;;;0.20;78.72
32761;BME280;19126;47.472;7.850;2023-02-28T11:49:35;97084.03;;;-0.04;78.81
32761;BME280;19126;47.472;7.850;2023-02-28T11:52:18;97077.94;;;0.11;78.86
32761;BME280;19126;47.472;7.850;2023-02-28T11:55:11;97073.38;;;0.02;78.71
32761;BME280;19126;47.472;7.850;2023-02-28T11:57:54;97081.06;;;0.17;79.90
32761;BME280;19126;47.472;7.850;2023-02-28T12:00:35;97075.34;;;0.11;78.60
32761;BME280;19126;47.472;7.850;2023-02-28T12:03:13;97080.16;;;0.31;80.24
32761;BME280;19126;47.472;7.850;2023-02-28T12:05:45;97087.53;;;0.37;79.23
32761;BME280;19126;47.472;7.850;2023-02-28T12:08:27;97075.94;;;0.29;79.30
32761;BME280;19126;47.472;7.850;2023-02-28T12:11:05;97071.59;;;0.30;78.93
32761;BME280;19126;47.472;7.850;2023-02-28T12:13:45;97072.53;;;0.29;78.89
32761;BME280;19126;47.472;7.850;2023-02-28T12:16:34;97065.38;;;0.20;78.50
32761;BME280;19126;47.472;7.850;2023-02-28T12:19:10;97090.50;;;0.31;79.30
32761;BME280;19126;47.472;7.850;2023-02-28T12:27:37;97082.81;;;0.16;78.27
32761;BME280;19126;47.472;7.850;2023-02-28T12:30:17;97077.41;;;-0.08;78.18
32761;BME280;19126;47.472;7.850;2023-02-28T12:32:47;97075.94;;;0.02;79.04
32761;BME280;19126;47.472;7.850;2023-02-28T12:35:21;97066.75;;;-0.17;79.18
32761;BME280;19126;47.472;7.850;2023-02-28T12:37:58;97070.94;;;-0.01;79.70
32761;BME280;19126;47.472;7.850;2023-02-28T12:40:41;97076.81;;;0.16;80.62
32761;BME280;19126;47.472;7.850;2023-02-28T12:43:09;97064.19;;;0.11;79.02
32761;BME280;19126;47.472;7.850;2023-02-28T12:45:47;97068.47;;;0.25;79.01
32761;BME280;19126;47.472;7.850;2023-02-28T12:48:26;97074.84;;;0.19;79.83
32761;BME280;19126;47.472;7.850;2023-02-28T12:50:57;97077.44;;;0.19;80.34
32761;BME280;19126;47.472;7.850;2023-02-28T12:53:35;97080.69;;;0.23;79.98
32761;BME280;19126;47.472;7.850;2023-02-28T12:56:13;97067.75;;;0.23;79.68
32761;BME280;19126;47.472;7.850;2023-02-28T12:58:45;97070.22;;;0.24;79.53
32761;BME280;19126;47.472;7.850;2023-02-28T13:01:33;97067.34;;;0.29;78.71
32761;BME280;19126;47.472;7.850;2023-02-28T13:04:24;97061.25;;;0.30;79.26
32761;BME280;19126;47.472;7.850;2023-02-28T13:07:24;97067.34;;;0.29;80.16
32761;BME280;19126;47.472;7.850;2023-02-28T13:10:10;97054.97;;;0.34;80.16
32761;BME280;19126;47.472;7.850;2023-02-28T13:12:53;97051.53;;;0.34;79.96
32761;BME280;19126;47.472;7.850;2023-02-28T13:15:26;97066.69;;;0.12;78.87
32761;BME280;19126;47.472;7.850;2023-02-28T13:17:56;97081.94;;;0.30;80.41
32761;BME280;19126;47.472;7.850;2023-02-28T13:20:24;97065.56;;;0.17;79.44
32761;BME280;19126;47.472;7.850;2023-02-28T13:22:53;97057.16;;;0.13;79.84
32761;BME280;19126;47.472;7.850;2023-02-28T13:25:51;97070.72;;;0.17;80.70
32761;BME280;19126;47.472;7.850;2023-02-28T13:34:20;97080.56;;;0.24;81.77
32761;BME280;19126;47.472;7.850;2023-02-28T13:36:49;97075.31;;;0.26;81.46
32761;BME280;19126;47.472;7.850;2023-02-28T13:39:47;97076.56;;;0.33;81.93
32761;BME280;19126;47.472;7.850;2023-02-28T13:42:39;97078.13;;;0.36;82.59
32761;BME280;19126;47.472;7.850;2023-02-28T13:45:38;97080.88;;;0.20;80.98
32761;BME280;19126;47.472;7.850;2023-02-28T13:48:28;97071.34;;;0.20;81.46
32761;BME280;19126;47.472;7.850;2023-02-28T13:50:57;97068.81;;;0.06;80.96
32761;BME280;19126;47.472;7.850;2023-02-28T13:53:53;97078.75;;;0.12;81.65
32761;BME280;19126;47.472;7.850;2023-02-28T13:56:28;97083.44;;;0.20;82.35
32761;BME280;19126;47.472;7.850;2023-02-28T13:59:03;97085.31;;;0.18;81.74
32761;BME280;19126;47.472;7.850;2023-02-28T14:01:47;97089.16;;;0.25;83.02
32761;BME280;19126;47.472;7.850;2023-02-28T14:04:43;97080.28;;;0.29;82.89
32761;BME280;19126;47.472;7.850;2023-02-28T14:07:24;97080.41;;;0.13;82.47
32761;BME280;19126;47.472;7.850;2023-02-28T14:09:59;97095.06;;;0.27;83.08
32761;BME280;19126;47.472;7.850;2023-02-28T14:12:58;97091.75;;;0.25;81.70
32761;BME280;19126;47.472;7.850;2023-02-28T14:15:38;97089.81;;;0.41;82.41
32761;BME280;19126;47.472;7.850;2023-02-28T14:18:21;97083.53;;;0.46;82.33
32761;BME280;19126;47.472;7.850;2023-02-28T14:20:58;97078.16;;;0.49;82.83
32761;BME280;19126;47.472;7.850;2023-02-28T14:24:03;97095.13;;;0.53;82.26
32761;BME280;19126;47.472;7.850;2023-02-28T14:27:01;97084.88;;;0.51;81.81
32761;BME280;19126;47.472;7.850;2023-02-28T14:29:43;97078.97;;;0.36;80.37
32761;BME280;19126;47.472;7.850;2023-02-28T14:32:26;97087.16;;;0.16;79.75
32761;BME280;19126;47.472;7.850;2023-02-28T14:35:02;97094.13;;;0.28;80.60
32761;BME280;19126;47.472;7.850;2023-02-28T14:37:36;97083.88;;;0.26;82.30
32761;BME280;19126;47.472;7.850;2023-02-28T14:40:14;97088.56;;;0.34;82.97
32761;BME280;19126;47.472;7.850;2023-02-28T14:42:47;97088.16;;;0.40;82.41
32761;BME280;19126;47.472;7.850;2023-02-28T14:45:18;97099.53;;;0.38;80.83
32761;BME280;19126;47.472;7.850;2023-02-28T14:47:51;97098.41;;;0.42;81.09